Time;durP1;ratioP1;P1;durP2;ratioP2;P2;SDS_P1;SDS_P2;PMS_P1;PMS_P2;Temp;Humidity;BMP_temperature;BMP_pressure;BME280_temperature;BME280_humidity;BME280_pressure;Samples;Min_cycle;Max_cycle;Signal;HPM_P1;HPM_P2
2022/05/14 00:02:19;;;;;;;26.40;15.15;;;;;;;;;;4936808;29;20384;-73
2022/05/14 00:04:48;;;;;;;22.00;14.73;;;;;;;;;;4936755;29;20048;-72
2022/05/14 00:07:15;;;;;;;20.98;13.65;;;;;;;;;;4936320;29;20055;-72
2022/05/14 00:09:52;;;;;;;22.27;15.00;;;;;;;;;;4936797;29;20130;-72
2022/05/14 00:15:12;;;;;;;22.40;14.02;;;;;;;;;;4936412;29;20043;-72
2022/05/14 00:17:40;;;;;;;20.98;14.40;;;;;;;;;;4936413;29;20070;-72
2022/05/14 00:20:12;;;;;;;28.10;15.93;;;;;;;;;;4936451;29;20055;-72
2022/05/14 00:22:43;;;;;;;23.65;14.43;;;;;;;;;;4936282;29;20056;-72
2022/05/14 00:25:16;;;;;;;28.27;15.48;;;;;;;;;;4936732;29;20055;-73
2022/05/14 00:27:44;;;;;;;25.40;14.48;;;;;;;;;;4936608;29;20054;-73
2022/05/14 00:30:18;;;;;;;21.73;14.95;;;;;;;;;;4935994;29;20040;-72
2022/05/14 00:32:47;;;;;;;24.85;15.10;;;;;;;;;;4936320;29;20517;-72
2022/05/14 00:35:15;;;;;;;23.00;15.70;;;;;;;;;;4936046;29;20115;-72
2022/05/14 00:37:46;;;;;;;25.40;16.15;;;;;;;;;;4935083;29;20079;-72
2022/05/14 00:40:19;;;;;;;24.95;15.05;;;;;;;;;;4936106;29;20107;-72
2022/05/14 00:42:46;;;;;;;23.98;14.65;;;;;;;;;;4935894;29;20086;-73
2022/05/14 00:45:17;;;;;;;25.65;15.57;;;;;;;;;;4919051;29;20521;-72
2022/05/14 00:47:50;;;;;;;32.20;17.48;;;;;;;;;;4919273;29;20047;-73
2022/05/14 00:50:27;;;;;;;24.33;15.57;;;;;;;;;;4935879;29;20040;-73
2022/05/14 00:53:03;;;;;;;23.25;15.73;;;;;;;;;;4935926;29;20074;-72
2022/05/14 00:55:39;;;;;;;21.67;15.25;;;;;;;;;;4935939;29;20487;-73
2022/05/14 00:58:08;;;;;;;25.88;15.43;;;;;;;;;;4918883;29;20043;-73
2022/05/14 01:00:41;;;;;;;27.60;14.05;;;;;;;;;;4935690;29;20098;-72
2022/05/14 01:03:13;;;;;;;26.85;14.57;;;;;;;;;;4936060;29;20042;-72
2022/05/14 01:05:46;;;;;;;22.00;13.93;;;;;;;;;;4935895;29;20035;-72
2022/05/14 01:08:14;;;;;;;20.00;12.82;;;;;;;;;;4918738;29;20418;-72
2022/05/14 01:10:52;;;;;;;21.83;14.48;;;;;;;;;;4918702;29;20039;-72
2022/05/14 01:13:20;;;;;;;19.73;14.18;;;;;;;;;;4934702;29;20426;-72
2022/05/14 01:16:00;;;;;;;21.50;13.40;;;;;;;;;;4918851;29;20039;-72
2022/05/14 01:18:53;;;;;;;18.30;12.50;;;;;;;;;;4934285;29;20411;-72
2022/05/14 01:21:27;;;;;;;23.85;12.95;;;;;;;;;;4934944;29;20103;-73
2022/05/14 01:26:50;;;;;;;19.60;13.00;;;;;;;;;;4934668;29;20058;-73
2022/05/14 01:29:19;;;;;;;25.95;17.42;;;;;;;;;;4934371;29;20048;-73
2022/05/14 01:35:01;;;;;;;33.13;18.88;;;;;;;;;;4935700;29;20047;-73
2022/05/14 01:37:57;;;;;;;23.75;14.75;;;;;;;;;;4918582;29;20411;-73
2022/05/14 01:40:49;;;;;;;25.33;15.80;;;;;;;;;;4918474;29;20523;-73
2022/05/14 01:43:21;;;;;;;32.42;22.27;;;;;;;;;;4935591;29;20039;-73
2022/05/14 01:45:51;;;;;;;22.58;15.18;;;;;;;;;;4918665;29;20044;-73
2022/05/14 01:48:20;;;;;;;28.08;18.60;;;;;;;;;;4935300;29;20052;-73
2022/05/14 01:50:50;;;;;;;28.02;17.17;;;;;;;;;;4918388;29;20044;-73
2022/05/14 01:53:20;;;;;;;28.33;19.30;;;;;;;;;;4918651;29;20058;-72
2022/05/14 01:55:53;;;;;;;21.55;14.27;;;;;;;;;;4935468;29;20055;-72
2022/05/14 01:58:37;;;;;;;21.48;14.80;;;;;;;;;;4918178;29;20050;-72
2022/05/14 02:01:24;;;;;;;23.15;13.30;;;;;;;;;;4919329;29;20048;-72
2022/05/14 02:03:58;;;;;;;18.88;12.30;;;;;;;;;;4938818;29;20055;-73
2022/05/14 02:06:30;;;;;;;24.67;13.25;;;;;;;;;;4922163;29;20164;-72
2022/05/14 02:09:03;;;;;;;19.92;12.82;;;;;;;;;;4937509;29;20080;-72
2022/05/14 02:11:32;;;;;;;20.88;12.55;;;;;;;;;;4921733;29;20043;-72
2022/05/14 02:14:07;;;;;;;19.20;12.77;;;;;;;;;;4921621;29;20044;-73
2022/05/14 02:16:39;;;;;;;30.88;19.98;;;;;;;;;;4937715;29;20047;-72
2022/05/14 02:19:09;;;;;;;21.27;13.10;;;;;;;;;;4921337;29;20098;-72
2022/05/14 02:21:37;;;;;;;21.58;12.75;;;;;;;;;;4936803;29;20407;-72
2022/05/14 02:24:07;;;;;;;22.17;13.13;;;;;;;;;;4921353;29;20088;-73
2022/05/14 02:27:00;;;;;;;21.33;13.32;;;;;;;;;;4921420;29;20051;-73
2022/05/14 02:29:50;;;;;;;23.33;15.20;;;;;;;;;;4938705;29;20483;-73
2022/05/14 02:32:21;;;;;;;20.17;12.82;;;;;;;;;;4938224;29;20039;-73
2022/05/14 02:34:53;;;;;;;18.77;13.73;;;;;;;;;;4921293;29;20052;-73
2022/05/14 02:37:26;;;;;;;24.42;14.27;;;;;;;;;;4921588;29;20099;-73
2022/05/14 02:39:57;;;;;;;20.75;13.70;;;;;;;;;;4937053;29;20054;-73
2022/05/14 02:42:29;;;;;;;20.17;13.63;;;;;;;;;;4920999;29;20047;-73
2022/05/14 02:45:06;;;;;;;26.25;15.07;;;;;;;;;;4938232;29;20115;-73
2022/05/14 02:47:34;;;;;;;24.02;14.27;;;;;;;;;;4938090;29;20134;-72
2022/05/14 02:50:08;;;;;;;23.40;14.43;;;;;;;;;;4920863;29;20126;-72
2022/05/14 02:52:41;;;;;;;24.60;13.83;;;;;;;;;;4936698;29;20051;-72
2022/05/14 02:55:15;;;;;;;22.10;14.80;;;;;;;;;;4936710;29;20322;-73
2022/05/14 02:57:48;;;;;;;21.20;14.40;;;;;;;;;;4920894;29;20048;-72
2022/05/14 03:00:18;;;;;;;23.27;14.27;;;;;;;;;;4920448;29;20047;-73
2022/05/14 03:02:50;;;;;;;21.85;14.30;;;;;;;;;;4937868;29;20050;-72
2022/05/14 03:05:22;;;;;;;21.77;15.20;;;;;;;;;;4920878;29;20134;-73
2022/05/14 03:08:14;;;;;;;18.15;13.43;;;;;;;;;;4937789;29;20059;-72
2022/05/14 03:11:07;;;;;;;27.85;12.52;;;;;;;;;;4920616;29;20051;-72
2022/05/14 03:14:01;;;;;;;14.82;10.13;;;;;;;;;;4937452;29;20043;-72
2022/05/14 03:16:30;;;;;;;18.15;10.80;;;;;;;;;;4936408;29;20048;-72
2022/05/14 03:19:02;;;;;;;20.13;11.70;;;;;;;;;;4920424;29;20062;-73
2022/05/14 03:21:30;;;;;;;15.63;10.50;;;;;;;;;;4937496;29;20130;-73
2022/05/14 03:24:01;;;;;;;19.73;10.95;;;;;;;;;;4936726;29;20082;-73
2022/05/14 03:26:30;;;;;;;15.02;10.50;;;;;;;;;;4937360;29;20051;-72
2022/05/14 03:29:00;;;;;;;19.00;10.77;;;;;;;;;;4935759;29;20458;-73
2022/05/14 03:32:01;;;;;;;16.73;10.73;;;;;;;;;;4920725;29;20090;-72
2022/05/14 03:38:08;;;;;;;15.80;10.63;;;;;;;;;;4935789;29;20071;-72
2022/05/14 03:41:01;;;;;;;17.55;10.93;;;;;;;;;;4919549;29;20055;-72
2022/05/14 03:43:35;;;;;;;14.43;10.40;;;;;;;;;;4935931;29;20044;-72
2022/05/14 03:46:10;;;;;;;19.98;10.93;;;;;;;;;;4935816;29;20056;-72
2022/05/14 03:48:40;;;;;;;19.20;13.40;;;;;;;;;;4937225;29;20098;-72
2022/05/14 03:51:11;;;;;;;20.45;12.25;;;;;;;;;;4919697;29;20575;-72
2022/05/14 03:53:44;;;;;;;18.15;12.57;;;;;;;;;;4936841;29;20042;-72
2022/05/14 03:56:12;;;;;;;19.48;13.40;;;;;;;;;;4937598;29;20394;-72
2022/05/14 03:58:46;;;;;;;22.83;13.18;;;;;;;;;;4919424;29;20074;-73
2022/05/14 04:01:14;;;;;;;19.27;12.82;;;;;;;;;;4919039;29;20499;-72
2022/05/14 04:03:44;;;;;;;21.02;13.05;;;;;;;;;;4935519;29;20094;-72
2022/05/14 04:06:14;;;;;;;22.55;12.80;;;;;;;;;;4936164;29;20076;-72
2022/05/14 04:08:46;;;;;;;21.10;12.48;;;;;;;;;;4919293;29;20044;-72
2022/05/14 04:11:13;;;;;;;18.67;11.82;;;;;;;;;;4936806;29;20044;-72
2022/05/14 04:14:06;;;;;;;17.67;11.68;;;;;;;;;;4919036;29;20048;-72
2022/05/14 04:16:34;;;;;;;21.60;10.88;;;;;;;;;;4917572;29;20054;-73
2022/05/14 04:19:28;;;;;;;25.05;11.98;;;;;;;;;;4916375;29;20451;-73
2022/05/14 04:21:55;;;;;;;14.68;11.65;;;;;;;;;;4900247;29;20096;-73
2022/05/14 04:24:30;;;;;;;17.00;11.48;;;;;;;;;;4916470;29;20046;-75
2022/05/14 04:27:00;;;;;;;17.08;11.27;;;;;;;;;;4930977;29;20039;-75
2022/05/14 04:29:30;;;;;;;19.05;11.85;;;;;;;;;;4918827;29;20083;-73
2022/05/14 04:32:05;;;;;;;18.67;11.85;;;;;;;;;;4936642;29;20051;-72
2022/05/14 04:34:40;;;;;;;19.33;12.35;;;;;;;;;;4917127;29;20415;-72
2022/05/14 04:37:26;;;;;;;38.03;25.10;;;;;;;;;;4917275;29;20525;-73
2022/05/14 04:39:54;;;;;;;26.20;21.58;;;;;;;;;;4900385;29;20052;-73
2022/05/14 04:42:24;;;;;;;16.23;11.88;;;;;;;;;;4900002;29;20044;-73
2022/05/14 04:44:57;;;;;;;17.00;12.38;;;;;;;;;;4900205;29;20072;-74
2022/05/14 04:47:33;;;;;;;16.95;12.65;;;;;;;;;;4900017;29;20452;-73
2022/05/14 04:50:26;;;;;;;18.55;12.82;;;;;;;;;;4915519;29;20513;-72
2022/05/14 04:52:59;;;;;;;20.02;13.43;;;;;;;;;;4900085;29;20522;-72
2022/05/14 04:55:35;;;;;;;19.98;12.98;;;;;;;;;;4899876;29;20140;-73
2022/05/14 04:58:04;;;;;;;17.77;13.52;;;;;;;;;;4916724;29;20059;-73
2022/05/14 05:00:32;;;;;;;18.73;13.32;;;;;;;;;;4917605;29;20044;-73
2022/05/14 05:03:19;;;;;;;28.63;13.88;;;;;;;;;;4935998;29;20115;-86
2022/05/14 05:05:57;;;;;;;20.52;12.75;;;;;;;;;;4918615;29;20052;-73
2022/05/14 05:08:25;;;;;;;22.02;13.10;;;;;;;;;;4915210;29;20052;-73
2022/05/14 05:10:59;;;;;;;17.80;12.95;;;;;;;;;;4916780;29;20051;-72
2022/05/14 05:13:30;;;;;;;31.23;14.85;;;;;;;;;;4899725;29;20048;-73
2022/05/14 05:15:59;;;;;;;17.70;12.82;;;;;;;;;;4916834;29;20048;-73
2022/05/14 05:18:33;;;;;;;21.10;13.45;;;;;;;;;;4916920;29;20115;-72
2022/05/14 05:21:01;;;;;;;18.33;13.45;;;;;;;;;;4915531;29;20060;-72
2022/05/14 05:23:55;;;;;;;21.05;14.95;;;;;;;;;;4915566;29;20415;-72
2022/05/14 05:26:49;;;;;;;16.77;12.68;;;;;;;;;;4915956;29;20044;-73
2022/05/14 05:29:16;;;;;;;26.23;12.43;;;;;;;;;;4915751;29;20491;-73
2022/05/14 05:31:44;;;;;;;14.57;11.30;;;;;;;;;;4916208;29;20041;-71
2022/05/14 05:34:13;;;;;;;15.75;12.05;;;;;;;;;;4916590;29;20048;-71
2022/05/14 05:36:41;;;;;;;17.10;11.48;;;;;;;;;;4935973;29;20058;-71
2022/05/14 05:39:10;;;;;;;15.70;12.73;;;;;;;;;;4937883;29;20040;-71
2022/05/14 05:41:39;;;;;;;19.05;13.40;;;;;;;;;;4938435;29;20048;-71
2022/05/14 05:44:07;;;;;;;15.65;11.88;;;;;;;;;;4938119;29;20132;-71
2022/05/14 05:46:39;;;;;;;18.17;14.95;;;;;;;;;;4939233;29;20051;-71
2022/05/14 05:49:12;;;;;;;17.23;10.20;;;;;;;;;;4939398;29;20055;-71
2022/05/14 05:51:39;;;;;;;15.57;10.45;;;;;;;;;;4939514;29;20036;-72
2022/05/14 05:56:59;;;;;;;15.63;9.73;;;;;;;;;;4939235;29;20063;-72
2022/05/14 05:59:52;;;;;;;11.10;8.90;;;;;;;;;;4938794;29;20099;-72
2022/05/14 06:02:21;;;;;;;13.43;9.18;;;;;;;;;;4939099;29;20122;-72
2022/05/14 06:04:49;;;;;;;13.55;8.75;;;;;;;;;;4931950;29;20039;-70
2022/05/14 06:07:17;;;;;;;10.27;8.25;;;;;;;;;;4938434;29;20043;-70
2022/05/14 06:09:46;;;;;;;10.52;8.07;;;;;;;;;;4938369;29;20040;-70
2022/05/14 06:12:15;;;;;;;12.13;8.77;;;;;;;;;;4938165;29;20056;-72
2022/05/14 06:14:43;;;;;;;9.07;7.45;;;;;;;;;;4938563;29;20055;-70
2022/05/14 06:17:12;;;;;;;11.13;7.63;;;;;;;;;;4938422;29;20056;-70
2022/05/14 06:19:40;;;;;;;15.52;9.70;;;;;;;;;;4938276;29;20044;-70
2022/05/14 06:22:07;;;;;;;13.57;8.25;;;;;;;;;;4937931;29;20463;-70
2022/05/14 06:24:38;;;;;;;13.70;7.82;;;;;;;;;;4937971;29;20063;-72
2022/05/14 06:27:06;;;;;;;15.10;8.75;;;;;;;;;;4937930;29;20051;-72
2022/05/14 06:29:34;;;;;;;12.90;8.13;;;;;;;;;;4938355;29;20044;-72
2022/05/14 06:32:02;;;;;;;12.10;7.40;;;;;;;;;;4938316;29;20471;-70
2022/05/14 06:34:29;;;;;;;11.32;7.32;;;;;;;;;;4938073;29;20395;-70
2022/05/14 06:36:57;;;;;;;11.70;7.20;;;;;;;;;;4938175;29;20388;-70
2022/05/14 06:39:27;;;;;;;9.85;6.90;;;;;;;;;;4938008;29;20379;-72
2022/05/14 06:41:54;;;;;;;13.90;10.18;;;;;;;;;;4937709;29;20048;-72
2022/05/14 06:44:22;;;;;;;25.70;13.18;;;;;;;;;;4932641;29;20670;-70
2022/05/14 06:46:49;;;;;;;182.45;17.55;;;;;;;;;;4920175;29;20474;-72
2022/05/14 06:49:19;;;;;;;13.25;8.23;;;;;;;;;;4935236;29;20390;-71
2022/05/14 06:51:47;;;;;;;12.48;8.52;;;;;;;;;;4933740;29;20040;-70
2022/05/14 06:54:17;;;;;;;14.32;8.63;;;;;;;;;;4931331;29;20541;-71
2022/05/14 06:56:49;;;;;;;10.93;8.68;;;;;;;;;;4937899;29;20070;-71
2022/05/14 06:59:16;;;;;;;17.42;8.63;;;;;;;;;;4937575;29;20486;-71
2022/05/14 07:01:47;;;;;;;10.73;8.82;;;;;;;;;;4938167;29;20050;-71
2022/05/14 07:07:05;;;;;;;10.48;7.90;;;;;;;;;;4937505;29;20495;-70
2022/05/14 07:09:37;;;;;;;9.32;7.95;;;;;;;;;;4937731;29;20454;-72
2022/05/14 07:12:15;;;;;;;15.85;8.55;;;;;;;;;;4938219;29;20130;-71
2022/05/14 07:14:44;;;;;;;10.90;7.32;;;;;;;;;;4937429;29;20403;-71
2022/05/14 07:17:34;;;;;;;9.68;7.03;;;;;;;;;;4937622;29;20046;-71
2022/05/14 07:20:01;;;;;;;10.98;7.50;;;;;;;;;;4937732;29;20059;-71
2022/05/14 07:22:29;;;;;;;8.25;7.00;;;;;;;;;;4930278;29;20054;-71
2022/05/14 07:24:57;;;;;;;12.15;7.85;;;;;;;;;;4922002;29;20126;-71
2022/05/14 07:27:26;;;;;;;10.55;7.82;;;;;;;;;;4901508;29;20075;-71
2022/05/14 07:29:55;;;;;;;15.45;11.15;;;;;;;;;;4917999;29;20048;-71
2022/05/14 07:32:24;;;;;;;9.13;7.07;;;;;;;;;;4918197;29;20487;-71
2022/05/14 07:34:54;;;;;;;7.40;6.60;;;;;;;;;;4918291;29;20084;-71
2022/05/14 07:37:23;;;;;;;10.07;7.78;;;;;;;;;;4917920;29;20082;-71
2022/05/14 07:39:53;;;;;;;10.88;6.85;;;;;;;;;;4918163;29;20558;-70
2022/05/14 07:42:42;;;;;;;10.98;7.82;;;;;;;;;;4917945;29;20123;-71
2022/05/14 07:45:15;;;;;;;9.88;7.75;;;;;;;;;;4918033;29;20059;-70
2022/05/14 07:47:45;;;;;;;14.80;8.23;;;;;;;;;;4917965;29;20080;-70
2022/05/14 07:50:14;;;;;;;13.05;7.93;;;;;;;;;;4918537;29;20047;-71
2022/05/14 07:52:43;;;;;;;14.77;12.38;;;;;;;;;;4917583;29;20586;-70
2022/05/14 07:55:11;;;;;;;13.15;10.43;;;;;;;;;;4922237;29;20050;-69
2022/05/14 07:57:39;;;;;;;18.92;8.93;;;;;;;;;;4920187;29;20048;-72
2022/05/14 08:00:08;;;;;;;26.65;8.90;;;;;;;;;;4935787;29;20052;-73
2022/05/14 08:02:39;;;;;;;20.05;9.18;;;;;;;;;;4934376;29;20039;-71
2022/05/14 08:05:09;;;;;;;12.27;9.05;;;;;;;;;;4936827;29;20051;-71
2022/05/14 08:07:38;;;;;;;47.03;10.38;;;;;;;;;;4934920;29;20048;-71
2022/05/14 08:10:06;;;;;;;12.38;9.27;;;;;;;;;;4935877;29;20052;-71
2022/05/14 08:12:39;;;;;;;12.30;9.38;;;;;;;;;;4936439;29;20044;-70
2022/05/14 08:15:16;;;;;;;14.07;9.15;;;;;;;;;;4936731;29;20091;-70
2022/05/14 08:17:45;;;;;;;13.27;9.57;;;;;;;;;;4936635;29;20491;-71
2022/05/14 08:20:19;;;;;;;11.18;9.02;;;;;;;;;;4936989;29;20048;-70
2022/05/14 08:26:04;;;;;;;13.43;9.98;;;;;;;;;;4919274;29;20520;-71
2022/05/14 08:28:39;;;;;;;10.68;8.65;;;;;;;;;;4936375;29;20052;-71
2022/05/14 08:31:07;;;;;;;15.88;8.50;;;;;;;;;;4936158;29;20130;-70
2022/05/14 08:33:38;;;;;;;13.23;9.75;;;;;;;;;;4936412;29;20636;-69
2022/05/14 08:36:05;;;;;;;11.18;9.05;;;;;;;;;;4936716;29;20046;-69
2022/05/14 08:38:33;;;;;;;13.98;9.52;;;;;;;;;;4935866;29;20046;-69
2022/05/14 08:41:25;;;;;;;13.20;8.93;;;;;;;;;;4936456;29;20094;-69
2022/05/14 08:44:00;;;;;;;14.10;10.57;;;;;;;;;;4936340;29;20055;-69
2022/05/14 08:46:37;;;;;;;12.38;9.40;;;;;;;;;;4935997;29;20585;-69
2022/05/14 08:49:10;;;;;;;13.35;8.90;;;;;;;;;;4936060;29;20051;-69
2022/05/14 08:51:43;;;;;;;23.52;18.23;;;;;;;;;;4935800;29;20475;-69
2022/05/14 08:54:11;;;;;;;27.92;14.27;;;;;;;;;;4936146;29;20047;-71
2022/05/14 08:56:58;;;;;;;11.48;9.13;;;;;;;;;;4935814;29;20055;-69
2022/05/14 09:00:00;;;;;;;17.83;11.52;;;;;;;;;;4935804;29;20398;-70
2022/05/14 09:02:33;;;;;;;13.43;9.27;;;;;;;;;;4885483;29;20055;-70
2022/05/14 09:05:08;;;;;;;10.40;8.75;;;;;;;;;;4935519;29;20072;-71
2022/05/14 09:08:01;;;;;;;12.13;8.15;;;;;;;;;;4935607;29;20499;-70
2022/05/14 09:10:31;;;;;;;13.82;8.43;;;;;;;;;;4936681;29;20039;-70
2022/05/14 09:13:23;;;;;;;12.10;8.13;;;;;;;;;;4939894;29;20120;-70
2022/05/14 09:15:57;;;;;;;12.20;8.88;;;;;;;;;;4940134;29;20570;-70
2022/05/14 09:18:56;;;;;;;13.23;9.43;;;;;;;;;;4940371;29;20071;-70
2022/05/14 09:21:25;;;;;;;10.63;8.40;;;;;;;;;;4922894;29;20106;-70
2022/05/14 09:24:03;;;;;;;10.98;8.27;;;;;;;;;;4939868;29;20044;-69
2022/05/14 09:26:37;;;;;;;11.15;8.52;;;;;;;;;;4939468;29;20051;-70
2022/05/14 09:29:35;;;;;;;11.05;8.07;;;;;;;;;;4939860;29;20073;-69
2022/05/14 09:32:04;;;;;;;14.82;8.20;;;;;;;;;;4936012;29;20048;-69
2022/05/14 09:34:36;;;;;;;9.73;8.15;;;;;;;;;;4939072;29;20044;-69
2022/05/14 09:37:10;;;;;;;13.93;9.60;;;;;;;;;;4922289;29;20107;-69
2022/05/14 09:39:43;;;;;;;9.95;8.18;;;;;;;;;;4939332;29;20068;-69
2022/05/14 09:42:37;;;;;;;11.82;8.07;;;;;;;;;;4939476;29;20074;-68
2022/05/14 09:45:20;;;;;;;11.43;7.72;;;;;;;;;;4935993;29;20047;-67
2022/05/14 09:47:51;;;;;;;11.02;8.25;;;;;;;;;;4939050;29;20406;-67
2022/05/14 09:50:31;;;;;;;9.40;8.00;;;;;;;;;;4939179;29;20055;-69
2022/05/14 09:53:04;;;;;;;9.27;8.25;;;;;;;;;;4939281;29;20047;-69
2022/05/14 09:55:35;;;;;;;11.57;8.52;;;;;;;;;;4922237;29;20044;-69
2022/05/14 09:58:06;;;;;;;13.50;10.63;;;;;;;;;;4939277;29;20055;-73
2022/05/14 10:00:49;;;;;;;12.93;10.43;;;;;;;;;;4938873;29;20079;-69
2022/05/14 10:03:22;;;;;;;12.47;8.67;;;;;;;;;;4940161;29;20052;-67
2022/05/14 10:05:59;;;;;;;12.00;7.70;;;;;;;;;;4927522;29;20051;-69
2022/05/14 10:08:41;;;;;;;11.30;7.65;;;;;;;;;;4921518;29;20048;-69
2022/05/14 10:11:12;;;;;;;13.45;7.32;;;;;;;;;;4924120;29;20471;-69
2022/05/14 10:14:02;;;;;;;17.13;8.63;;;;;;;;;;4933775;29;20364;-66
2022/05/14 10:16:42;;;;;;;8.40;6.78;;;;;;;;;;4937916;29;20047;-69
2022/05/14 10:19:29;;;;;;;12.55;8.65;;;;;;;;;;4938047;29;20047;-69
2022/05/14 10:22:12;;;;;;;15.45;8.10;;;;;;;;;;4930987;29;20439;-69
2022/05/14 10:28:02;;;;;;;10.75;7.88;;;;;;;;;;4937911;29;20052;-69
2022/05/14 10:30:49;;;;;;;10.13;7.30;;;;;;;;;;4938037;29;20451;-69
2022/05/14 10:33:19;;;;;;;13.00;7.85;;;;;;;;;;4937917;29;20047;-69
2022/05/14 10:35:56;;;;;;;15.90;7.90;;;;;;;;;;4937782;29;20047;-69
2022/05/14 10:38:57;;;;;;;23.90;10.10;;;;;;;;;;4937965;29;20055;-69
2022/05/14 10:41:27;;;;;;;12.27;8.52;;;;;;;;;;4896423;29;20071;-69
2022/05/14 10:44:01;;;;;;;9.25;7.80;;;;;;;;;;4934975;29;20051;-69
2022/05/14 10:46:33;;;;;;;11.73;8.05;;;;;;;;;;4936287;29;20035;-69
2022/05/14 10:49:21;;;;;;;7.78;6.70;;;;;;;;;;4937881;29;20079;-69
2022/05/14 10:51:54;;;;;;;8.85;6.80;;;;;;;;;;4938122;29;20079;-68
2022/05/14 10:54:36;;;;;;;9.80;7.10;;;;;;;;;;4938364;29;20074;-68
2022/05/14 10:57:22;;;;;;;9.77;6.75;;;;;;;;;;4937697;29;20459;-68
2022/05/14 11:00:24;;;;;;;9.20;7.80;;;;;;;;;;4936421;29;20525;-69
2022/05/14 11:03:00;;;;;;;8.50;6.70;;;;;;;;;;4937638;29;20104;-68
2022/05/14 11:05:32;;;;;;;11.18;7.15;;;;;;;;;;4934280;29;20459;-68
2022/05/14 11:08:08;;;;;;;12.80;7.43;;;;;;;;;;4937561;29;20066;-69
2022/05/14 11:10:42;;;;;;;27.20;22.63;;;;;;;;;;4937591;29;20620;-69
2022/05/14 11:13:16;;;;;;;15.75;10.63;;;;;;;;;;4937645;29;20137;-68
2022/05/14 11:15:44;;;;;;;13.00;8.35;;;;;;;;;;4937502;29;20051;-68
2022/05/14 11:18:13;;;;;;;10.50;7.72;;;;;;;;;;4936444;29;20047;-69
2022/05/14 11:21:05;;;;;;;9.63;7.78;;;;;;;;;;4937687;29;20039;-69
2022/05/14 11:23:33;;;;;;;10.68;6.97;;;;;;;;;;4937319;29;20050;-69
2022/05/14 11:26:25;;;;;;;10.52;8.00;;;;;;;;;;4937551;29;20126;-68
2022/05/14 11:28:56;;;;;;;13.80;7.90;;;;;;;;;;4937277;29;20095;-68
2022/05/14 11:31:29;;;;;;;10.15;8.75;;;;;;;;;;4937240;29;20138;-69
2022/05/14 11:33:59;;;;;;;10.43;8.70;;;;;;;;;;4937051;29;20083;-68
2022/05/14 11:36:28;;;;;;;12.75;7.82;;;;;;;;;;4936838;29;20122;-68
2022/05/14 11:39:24;;;;;;;12.20;8.00;;;;;;;;;;4936483;29;20043;-69
2022/05/14 11:42:12;;;;;;;16.88;8.23;;;;;;;;;;4937396;29;20043;-68
2022/05/14 11:44:50;;;;;;;12.05;8.27;;;;;;;;;;4937222;29;20118;-69
2022/05/14 11:47:24;;;;;;;9.02;8.13;;;;;;;;;;4937327;29;20043;-68
2022/05/14 11:49:54;;;;;;;10.13;7.93;;;;;;;;;;4936909;29;20051;-68
2022/05/14 11:52:30;;;;;;;10.43;7.78;;;;;;;;;;4937208;29;20119;-68
2022/05/14 11:55:18;;;;;;;15.40;11.93;;;;;;;;;;4936805;29;20035;-68
2022/05/14 11:57:48;;;;;;;10.15;7.00;;;;;;;;;;4936120;29;20078;-68
2022/05/14 12:00:19;;;;;;;9.43;7.40;;;;;;;;;;4936421;29;20040;-68
2022/05/14 12:03:06;;;;;;;9.82;7.05;;;;;;;;;;4923026;29;20115;-68
2022/05/14 12:05:39;;;;;;;10.43;6.82;;;;;;;;;;4917392;29;20440;-69
2022/05/14 12:08:25;;;;;;;9.82;7.13;;;;;;;;;;4934600;29;20147;-69
2022/05/14 12:10:53;;;;;;;9.40;7.47;;;;;;;;;;4936471;29;20122;-68
2022/05/14 12:13:39;;;;;;;8.90;7.32;;;;;;;;;;4936390;29;20090;-68
2022/05/14 12:16:08;;;;;;;7.50;6.70;;;;;;;;;;4935956;29;20134;-68
2022/05/14 12:18:40;;;;;;;11.20;7.20;;;;;;;;;;4936398;29;20549;-69
2022/05/14 12:21:08;;;;;;;9.02;6.95;;;;;;;;;;4934679;29;20099;-69
2022/05/14 12:23:44;;;;;;;8.95;6.60;;;;;;;;;;4936178;29;20132;-70
2022/05/14 12:26:38;;;;;;;10.73;6.47;;;;;;;;;;4935864;29;20772;-69
2022/05/14 12:29:23;;;;;;;9.70;6.50;;;;;;;;;;4933675;29;20127;-69
2022/05/14 12:34:53;;;;;;;9.40;6.25;;;;;;;;;;4935977;29;20454;-69
2022/05/14 12:37:21;;;;;;;9.30;6.20;;;;;;;;;;4936016;29;20044;-69
2022/05/14 12:39:50;;;;;;;11.02;6.50;;;;;;;;;;4935938;29;20046;-67
2022/05/14 12:42:21;;;;;;;9.52;6.40;;;;;;;;;;4935556;29;20604;-69
2022/05/14 12:45:18;;;;;;;19.08;7.63;;;;;;;;;;4934087;29;20566;-69
2022/05/14 12:48:10;;;;;;;8.95;6.40;;;;;;;;;;4935595;29;20049;-69
2022/05/14 12:50:50;;;;;;;10.15;6.50;;;;;;;;;;4934418;29;20051;-69
2022/05/14 12:53:19;;;;;;;10.00;6.72;;;;;;;;;;4936203;29;20052;-69
2022/05/14 12:55:51;;;;;;;6.60;5.90;;;;;;;;;;4936387;29;20423;-69
2022/05/14 12:58:21;;;;;;;9.60;6.82;;;;;;;;;;4936171;29;20442;-69
2022/05/14 13:00:51;;;;;;;14.48;8.18;;;;;;;;;;4918221;29;20044;-69
2022/05/14 13:03:31;;;;;;;10.32;7.30;;;;;;;;;;4909509;29;20051;-69
2022/05/14 13:06:10;;;;;;;10.27;6.63;;;;;;;;;;4935793;29;20482;-69
2022/05/14 13:08:42;;;;;;;8.68;6.88;;;;;;;;;;4934871;29;20048;-69
2022/05/14 13:11:15;;;;;;;8.90;6.88;;;;;;;;;;4916747;29;20076;-70
2022/05/14 13:13:51;;;;;;;9.93;7.22;;;;;;;;;;4916694;29;20072;-69
2022/05/14 13:16:31;;;;;;;9.80;7.10;;;;;;;;;;4929376;29;20157;-71
2022/05/14 13:19:02;;;;;;;10.85;6.28;;;;;;;;;;4936027;29;20043;-70
2022/05/14 13:21:32;;;;;;;10.77;6.90;;;;;;;;;;4932093;29;20123;-69
2022/05/14 13:24:04;;;;;;;12.07;6.88;;;;;;;;;;4919343;29;20099;-69
2022/05/14 13:26:40;;;;;;;8.40;6.20;;;;;;;;;;4917127;29;20051;-68
2022/05/14 13:29:12;;;;;;;8.68;5.72;;;;;;;;;;4917179;29;20124;-70
2022/05/14 13:31:40;;;;;;;9.77;6.00;;;;;;;;;;4935072;29;20079;-70
2022/05/14 13:37:12;;;;;;;7.20;5.50;;;;;;;;;;4934444;29;20071;-68
2022/05/14 13:39:42;;;;;;;8.00;5.85;;;;;;;;;;4934940;29;20043;-69
2022/05/14 13:42:22;;;;;;;7.22;5.93;;;;;;;;;;4934587;29;20139;-70
2022/05/14 13:44:56;;;;;;;9.35;5.68;;;;;;;;;;4934953;29;20051;-68
2022/05/14 13:47:24;;;;;;;9.80;5.55;;;;;;;;;;4935025;29;20506;-69
2022/05/14 13:49:54;;;;;;;9.93;5.20;;;;;;;;;;4935131;29;20375;-69
2022/05/14 13:52:26;;;;;;;9.73;5.10;;;;;;;;;;4934920;29;20099;-68
2022/05/14 13:55:05;;;;;;;8.32;5.05;;;;;;;;;;4935175;29;20107;-68
2022/05/14 13:57:34;;;;;;;7.55;5.32;;;;;;;;;;4935795;29;20044;-69
2022/05/14 14:00:05;;;;;;;10.45;5.60;;;;;;;;;;4936330;29;20052;-68
2022/05/14 14:02:39;;;;;;;7.90;5.30;;;;;;;;;;4919661;29;20056;-69
2022/05/14 14:05:12;;;;;;;8.02;5.55;;;;;;;;;;4920071;29;20055;-69
2022/05/14 14:07:40;;;;;;;7.43;4.80;;;;;;;;;;4919361;29;20052;-69
2022/05/14 14:10:14;;;;;;;7.45;5.13;;;;;;;;;;4920079;29;20054;-69
2022/05/14 14:12:42;;;;;;;8.70;4.85;;;;;;;;;;4919559;29;20099;-69
2022/05/14 14:15:11;;;;;;;9.63;5.22;;;;;;;;;;4919473;29;20055;-69
2022/05/14 14:17:39;;;;;;;7.15;5.13;;;;;;;;;;4920074;29;20381;-70
2022/05/14 14:20:08;;;;;;;10.38;4.45;;;;;;;;;;4919593;29;20054;-70
2022/05/14 14:22:44;;;;;;;10.18;5.20;;;;;;;;;;4919286;29;20418;-71
2022/05/14 14:25:14;;;;;;;6.20;4.93;;;;;;;;;;4919588;29;20547;-70
2022/05/14 14:27:42;;;;;;;9.65;5.00;;;;;;;;;;4918777;29;20044;-70
2022/05/14 14:30:11;;;;;;;6.80;4.32;;;;;;;;;;4919271;29;20052;-70
2022/05/14 14:32:44;;;;;;;13.27;4.95;;;;;;;;;;4919172;29;20051;-69
2022/05/14 14:35:13;;;;;;;8.98;4.43;;;;;;;;;;4919287;29;20048;-72
2022/05/14 14:37:47;;;;;;;9.27;4.22;;;;;;;;;;4919190;29;20044;-70
2022/05/14 14:40:19;;;;;;;6.22;4.80;;;;;;;;;;4919172;29;20067;-70
2022/05/14 14:42:49;;;;;;;11.02;8.05;;;;;;;;;;4919240;29;20075;-69
2022/05/14 14:45:17;;;;;;;7.78;6.05;;;;;;;;;;4919150;29;20048;-69
2022/05/14 14:47:49;;;;;;;7.03;5.07;;;;;;;;;;4919143;29;20048;-70
2022/05/14 14:50:25;;;;;;;6.78;4.28;;;;;;;;;;4919118;29;20055;-70
2022/05/14 14:52:53;;;;;;;8.57;4.35;;;;;;;;;;4918577;29;20518;-70
2022/05/14 14:55:29;;;;;;;6.63;5.15;;;;;;;;;;4919014;29;20040;-72
2022/05/14 14:57:57;;;;;;;6.80;4.93;;;;;;;;;;4918675;29;20050;-71
2022/05/14 15:00:28;;;;;;;8.05;4.30;;;;;;;;;;4918295;29;20044;-70
2022/05/14 15:03:00;;;;;;;9.73;4.88;;;;;;;;;;4918566;29;20471;-70
2022/05/14 15:05:34;;;;;;;5.90;4.35;;;;;;;;;;4917492;29;20108;-71
2022/05/14 15:08:03;;;;;;;6.47;4.70;;;;;;;;;;4918428;29;20055;-70
2022/05/14 15:10:39;;;;;;;8.05;5.15;;;;;;;;;;4917683;29;20044;-70
2022/05/14 15:13:14;;;;;;;8.57;5.30;;;;;;;;;;4918884;29;20490;-69
2022/05/14 15:15:43;;;;;;;12.50;6.13;;;;;;;;;;4918479;29;20040;-70
2022/05/14 15:18:11;;;;;;;10.00;6.00;;;;;;;;;;4901193;29;20052;-71
2022/05/14 15:20:45;;;;;;;11.93;7.43;;;;;;;;;;4918614;29;20124;-71
2022/05/14 15:23:13;;;;;;;12.40;6.38;;;;;;;;;;4917328;29;20112;-70
2022/05/14 15:25:45;;;;;;;7.88;5.70;;;;;;;;;;4917530;29;20067;-71
2022/05/14 15:28:15;;;;;;;8.93;6.20;;;;;;;;;;4918984;29;20055;-70
2022/05/14 15:30:43;;;;;;;7.25;5.40;;;;;;;;;;4918575;29;20047;-70
2022/05/14 15:33:11;;;;;;;7.07;5.32;;;;;;;;;;4917603;29;20494;-70
2022/05/14 15:35:39;;;;;;;7.80;5.55;;;;;;;;;;4917981;29;20108;-73
2022/05/14 15:38:07;;;;;;;9.00;5.60;;;;;;;;;;4917797;29;20044;-70
2022/05/14 15:40:45;;;;;;;10.65;5.20;;;;;;;;;;4917559;29;20158;-71